createdAt,value
2022-11-01T00:00:28.138Z,12.60
2022-11-01T00:02:56.965Z,12.50
2022-11-01T00:05:25.684Z,12.50
2022-11-01T00:07:54.954Z,12.50
2022-11-01T00:10:23.664Z,12.40
2022-11-01T00:12:52.370Z,12.40
2022-11-01T00:15:21.146Z,12.30
2022-11-01T00:17:51.387Z,12.30
2022-11-01T00:20:20.181Z,12.30
2022-11-01T00:22:48.913Z,12.20
2022-11-01T00:25:17.798Z,12.20
2022-11-01T00:27:46.558Z,12.20
2022-11-01T00:30:15.834Z,12.10
2022-11-01T00:32:54.517Z,12.10
2022-11-01T00:35:26.141Z,12.10
2022-11-01T00:37:55.003Z,12.10
2022-11-01T00:40:23.775Z,12.10
2022-11-01T00:42:52.497Z,12.10
2022-11-01T00:45:21.424Z,12.00
2022-11-01T00:47:50.578Z,12.00
2022-11-01T00:50:19.318Z,12.00
2022-11-01T00:52:49.550Z,12.00
2022-11-01T00:55:18.968Z,12.00
2022-11-01T00:57:48.157Z,12.00
2022-11-01T01:00:17.531Z,11.90
2022-11-01T01:02:46.188Z,11.90
2022-11-01T01:05:14.900Z,11.90
2022-11-01T01:07:43.589Z,11.90
2022-11-01T01:10:13.709Z,11.80
2022-11-01T01:12:42.780Z,11.80
2022-11-01T01:15:11.705Z,11.80
2022-11-01T01:17:40.311Z,11.80
2022-11-01T01:20:10.563Z,11.80
2022-11-01T01:22:39.363Z,11.80
2022-11-01T01:25:08.720Z,11.80
2022-11-01T01:27:38.977Z,11.80
2022-11-01T01:30:09.025Z,11.70
2022-11-01T01:32:38.174Z,11.60
2022-11-01T01:35:07.794Z,11.50
2022-11-01T01:37:36.578Z,11.50
2022-11-01T01:40:06.521Z,11.40
2022-11-01T01:42:36.894Z,11.20
2022-11-01T01:45:29.100Z,11.10
2022-11-01T01:48:02.871Z,11.00
2022-11-01T01:50:36.682Z,10.90
2022-11-01T01:53:08.488Z,10.90
2022-11-01T01:55:42.170Z,10.80
2022-11-01T01:58:14.318Z,10.80
2022-11-01T02:00:46.044Z,10.80
2022-11-01T02:03:15.790Z,10.70
2022-11-01T02:05:48.847Z,10.70
2022-11-01T02:08:26.790Z,10.70
2022-11-01T02:10:57.644Z,10.70
2022-11-01T02:13:26.518Z,10.70
2022-11-01T02:16:12.952Z,10.70
2022-11-01T02:18:47.125Z,10.70
2022-11-01T02:21:43.608Z,10.60
2022-11-01T02:25:01.279Z,10.60
2022-11-01T02:27:39.966Z,10.50
2022-11-01T02:30:16.367Z,10.50
2022-11-01T02:32:58.626Z,10.50
2022-11-01T02:35:37.865Z,10.50
2022-11-01T02:38:10.328Z,10.50
2022-11-01T02:40:47.378Z,10.50
2022-11-01T02:43:20.785Z,10.50
2022-11-01T02:45:51.314Z,10.40
2022-11-01T02:48:23.893Z,10.30
2022-11-01T02:50:55.689Z,10.30
2022-11-01T02:53:24.662Z,10.20
2022-11-01T02:55:54.015Z,10.20
2022-11-01T02:58:25.585Z,10.20
2022-11-01T03:00:55.929Z,10.20
2022-11-01T03:03:34.614Z,10.20
2022-11-01T03:06:11.530Z,10.10
2022-11-01T03:08:44.641Z,10.10
2022-11-01T03:11:16.501Z,10.10
2022-11-01T03:13:57.155Z,10.00
2022-11-01T03:16:32.330Z,10.00
2022-11-01T03:19:11.304Z,10.00
2022-11-01T03:21:43.562Z,10.00
2022-11-01T03:24:21.906Z,10.00
2022-11-01T03:26:58.747Z,10.00
2022-11-01T03:29:30.528Z,9.90
2022-11-01T03:32:01.377Z,9.90
2022-11-01T03:34:33.736Z,9.80
2022-11-01T03:37:07.913Z,9.80
2022-11-01T03:39:43.448Z,9.80
2022-11-01T03:42:15.962Z,9.80
2022-11-01T03:44:49.414Z,9.90
2022-11-01T03:47:18.546Z,9.90
2022-11-01T03:49:48.718Z,10.00
2022-11-01T03:52:18.036Z,10.00
2022-11-01T03:54:46.752Z,10.10
2022-11-01T03:57:15.969Z,10.10
2022-11-01T03:59:44.689Z,10.20
2022-11-01T04:02:13.421Z,10.20
2022-11-01T04:04:42.234Z,10.30
2022-11-01T04:07:12.319Z,10.20
2022-11-01T04:09:41.062Z,10.10
2022-11-01T04:12:09.951Z,10.00
2022-11-01T04:14:56.054Z,9.80
2022-11-01T04:17:42.329Z,9.70
2022-11-01T04:20:29.094Z,9.60
2022-11-01T04:22:59.784Z,9.50
2022-11-01T04:25:29.055Z,9.40
2022-11-01T04:27:58.724Z,9.40
2022-11-01T04:30:28.837Z,9.40
2022-11-01T04:32:58.154Z,9.40
2022-11-01T04:35:26.989Z,9.30
2022-11-01T04:38:01.245Z,9.30
2022-11-01T04:40:30.372Z,9.40
2022-11-01T04:43:00.173Z,9.40
2022-11-01T04:45:29.233Z,9.40
2022-11-01T04:48:05.579Z,9.40
2022-11-01T04:50:34.898Z,9.50
2022-11-01T04:53:05.426Z,9.50
2022-11-01T04:55:34.666Z,9.50
2022-11-01T04:58:04.685Z,9.40
2022-11-01T05:00:33.657Z,9.40
2022-11-01T05:03:03.938Z,9.40
2022-11-01T05:05:33.699Z,9.40
2022-11-01T05:08:05.401Z,9.30
2022-11-01T05:10:54.969Z,9.30
2022-11-01T05:13:24.391Z,9.30
2022-11-01T05:16:17.540Z,9.30
2022-11-01T05:18:44.033Z,9.40
2022-11-01T05:21:13.059Z,9.40
2022-11-01T05:23:43.169Z,9.50
2022-11-01T05:26:12.057Z,9.50
2022-11-01T05:28:40.891Z,9.60
2022-11-01T05:31:10.039Z,9.70
2022-11-01T05:33:38.702Z,9.80
2022-11-01T05:36:08.070Z,9.80
2022-11-01T05:38:36.906Z,9.90
2022-11-01T05:41:07.319Z,10.00
2022-11-01T05:43:36.212Z,10.00
2022-11-01T05:46:06.296Z,10.10
2022-11-01T05:48:36.133Z,10.20
2022-11-01T05:51:06.047Z,10.20
2022-11-01T05:53:34.696Z,10.20
2022-11-01T05:56:03.498Z,10.30
2022-11-01T05:58:33.863Z,10.40
2022-11-01T06:01:04.304Z,10.50
2022-11-01T06:03:33.932Z,10.60
2022-11-01T06:06:02.894Z,10.70
2022-11-01T06:08:32.601Z,10.80
2022-11-01T06:11:05.520Z,10.90
2022-11-01T06:13:35.794Z,11.00
2022-11-01T06:16:07.214Z,11.10
2022-11-01T06:18:35.975Z,11.20
2022-11-01T06:21:04.837Z,11.30
2022-11-01T06:23:33.613Z,11.40
2022-11-01T06:26:03.298Z,11.60
2022-11-01T06:28:32.296Z,11.70
2022-11-01T06:33:44.024Z,11.90
2022-11-01T06:36:25.352Z,12.00
2022-11-01T06:39:09.218Z,12.10
2022-11-01T06:41:40.106Z,12.20
2022-11-01T06:44:08.874Z,12.30
2022-11-01T06:46:45.507Z,12.40
2022-11-01T06:49:19.032Z,12.50
2022-11-01T06:51:48.682Z,12.60
2022-11-01T06:54:17.779Z,12.80
2022-11-01T06:56:49.081Z,12.90
2022-11-01T06:59:17.892Z,13.00
2022-11-01T07:01:48.356Z,13.10
2022-11-01T07:04:17.735Z,13.30
2022-11-01T07:06:46.746Z,13.40
2022-11-01T07:09:15.706Z,13.60
2022-11-01T07:11:44.506Z,13.70
2022-11-01T07:14:13.528Z,13.80
2022-11-01T07:16:42.494Z,13.90
2022-11-01T07:19:13.020Z,14.00
2022-11-01T07:21:43.496Z,14.10
2022-11-01T07:24:12.386Z,14.30
2022-11-01T07:26:41.070Z,14.40
2022-11-01T07:29:10.129Z,14.50
2022-11-01T07:31:39.150Z,14.60
2022-11-01T07:34:07.969Z,14.70
2022-11-01T07:36:38.182Z,14.80
2022-11-01T07:39:07.300Z,14.90
2022-11-01T07:41:36.127Z,15.00
2022-11-01T07:44:04.916Z,15.10
2022-11-01T07:46:33.669Z,15.20
2022-11-01T07:49:02.703Z,15.30
2022-11-01T07:51:31.484Z,15.40
2022-11-01T07:54:02.254Z,15.50
2022-11-01T07:56:31.097Z,15.70
2022-11-01T07:58:59.907Z,15.80
2022-11-01T08:01:28.804Z,16.00
2022-11-01T08:04:16.524Z,16.10
2022-11-01T08:06:47.063Z,16.40
2022-11-01T08:09:22.127Z,16.50
2022-11-01T08:11:50.997Z,16.70
2022-11-01T08:14:19.686Z,16.90
2022-11-01T08:16:50.268Z,17.00
2022-11-01T08:19:19.134Z,17.10
2022-11-01T08:21:47.878Z,17.20
2022-11-01T08:24:16.920Z,17.50
2022-11-01T08:26:47.715Z,17.90
2022-11-01T08:29:16.723Z,18.10
2022-11-01T08:31:45.603Z,18.30
2022-11-01T08:34:16.900Z,18.50
2022-11-01T08:36:46.101Z,18.80
2022-11-01T08:39:15.031Z,19.40
2022-11-01T08:41:43.912Z,20.90
2022-11-01T08:44:14.198Z,22.60
2022-11-01T08:46:43.769Z,24.20
2022-11-01T08:49:12.727Z,25.60
2022-11-01T08:51:42.054Z,26.90
2022-11-01T08:54:12.372Z,28.10
2022-11-01T08:56:41.587Z,29.10
2022-11-01T08:59:10.627Z,29.90
2022-11-01T09:01:41.359Z,30.60
2022-11-01T09:04:29.173Z,31.00
2022-11-01T09:06:58.181Z,31.30
2022-11-01T09:09:45.412Z,31.60
2022-11-01T09:12:14.990Z,32.10
2022-11-01T09:14:44.038Z,32.30
2022-11-01T09:17:14.315Z,32.60
2022-11-01T09:19:43.430Z,32.70
2022-11-01T09:22:12.232Z,32.80
2022-11-01T09:24:41.104Z,32.80
2022-11-01T09:27:10.295Z,32.70
2022-11-01T09:29:39.218Z,32.70
2022-11-01T09:32:08.398Z,32.60
2022-11-01T09:34:38.578Z,32.80
2022-11-01T09:37:25.883Z,32.90
2022-11-01T09:39:54.732Z,33.20
2022-11-01T09:42:29.545Z,33.60
2022-11-01T09:45:02.919Z,34.00
2022-11-01T09:47:34.081Z,34.20
2022-11-01T09:50:14.065Z,34.50
2022-11-01T09:52:43.429Z,34.80
2022-11-01T09:55:16.475Z,35.10
2022-11-01T09:57:51.673Z,35.30
2022-11-01T10:00:21.978Z,35.20
2022-11-01T10:03:16.407Z,34.90
2022-11-01T10:05:56.801Z,34.60
2022-11-01T10:08:37.428Z,34.30
2022-11-01T10:11:30.144Z,34.20
2022-11-01T10:14:08.206Z,34.00
2022-11-01T10:16:38.531Z,33.90
2022-11-01T10:19:15.074Z,33.90
2022-11-01T10:21:50.748Z,34.00
2022-11-01T10:24:29.280Z,34.00
2022-11-01T10:27:04.821Z,33.90
2022-11-01T10:29:42.497Z,33.90
2022-11-01T10:32:25.096Z,34.00
2022-11-01T10:34:57.178Z,34.10
2022-11-01T10:37:35.011Z,34.10
2022-11-01T10:40:11.745Z,34.00
2022-11-01T10:43:00.720Z,33.90
2022-11-01T10:45:29.881Z,34.00
2022-11-01T10:48:00.061Z,34.20
2022-11-01T10:50:31.608Z,34.20
2022-11-01T10:53:04.656Z,34.30
2022-11-01T10:55:40.207Z,34.00
2022-11-01T10:58:17.156Z,33.60
2022-11-01T11:00:47.944Z,32.70
2022-11-01T11:03:22.503Z,31.70
2022-11-01T11:05:53.448Z,30.70
2022-11-01T11:08:26.123Z,29.70
2022-11-01T11:10:59.728Z,28.80
2022-11-01T11:13:29.037Z,28.20
2022-11-01T11:16:01.731Z,27.70
2022-11-01T11:18:33.892Z,27.20
2022-11-01T11:21:09.010Z,26.70
2022-11-01T11:23:57.998Z,26.40
2022-11-01T11:26:28.397Z,26.00
2022-11-01T11:28:58.863Z,25.80
2022-11-01T11:31:31.539Z,25.50
2022-11-01T11:34:04.325Z,25.30
2022-11-01T11:36:36.251Z,25.20
2022-11-01T11:39:07.008Z,25.00
2022-11-01T11:41:39.391Z,24.90
2022-11-01T11:44:39.760Z,24.80
2022-11-01T11:47:22.279Z,24.70
2022-11-01T11:49:53.846Z,24.60
2022-11-01T11:52:42.556Z,24.50
2022-11-01T11:55:31.691Z,24.40
2022-11-01T11:58:13.225Z,24.30
2022-11-01T12:00:51.375Z,24.20
2022-11-01T12:03:21.585Z,24.20
2022-11-01T12:05:56.404Z,24.10
2022-11-01T12:08:48.688Z,24.00
2022-11-01T12:11:19.609Z,24.00
2022-11-01T12:14:02.366Z,24.00
2022-11-01T12:16:31.652Z,24.00
2022-11-01T12:19:02.612Z,23.90
2022-11-01T12:21:34.966Z,23.90
2022-11-01T12:24:09.320Z,23.80
2022-11-01T12:26:40.322Z,23.80
2022-11-01T12:29:27.317Z,23.80
2022-11-01T12:31:59.884Z,23.70
2022-11-01T12:34:35.100Z,23.70
2022-11-01T12:37:15.321Z,23.70
2022-11-01T12:39:51.315Z,23.60
2022-11-01T12:42:28.703Z,23.60
2022-11-01T12:45:03.034Z,23.50
2022-11-01T12:47:38.241Z,23.50
2022-11-01T12:50:16.647Z,23.50
2022-11-01T12:52:53.013Z,23.40
2022-11-01T12:55:30.941Z,23.50
2022-11-01T12:58:01.605Z,23.50
2022-11-01T13:01:02.363Z,23.40
2022-11-01T13:03:42.821Z,23.30
2022-11-01T13:06:28.917Z,23.30
2022-11-01T13:09:04.296Z,23.20
2022-11-01T13:11:42.583Z,23.10
2022-11-01T13:14:29.624Z,23.10
2022-11-01T13:17:06.282Z,23.00
2022-11-01T13:19:44.244Z,22.90
2022-11-01T13:22:20.162Z,22.80
2022-11-01T13:24:54.378Z,22.80
2022-11-01T13:27:29.664Z,22.80
2022-11-01T13:30:04.009Z,22.70
2022-11-01T13:32:39.793Z,22.70
2022-11-01T13:35:31.997Z,22.60
2022-11-01T13:38:08.630Z,22.60
2022-11-01T13:40:43.647Z,22.50
2022-11-01T13:43:16.916Z,22.40
2022-11-01T13:46:08.395Z,22.40
2022-11-01T13:48:48.753Z,22.30
2022-11-01T13:51:34.681Z,22.30
2022-11-01T13:54:11.535Z,22.20
2022-11-01T13:56:44.356Z,22.10
2022-11-01T13:59:29.092Z,22.00
2022-11-01T14:02:37.182Z,22.00
2022-11-01T14:05:38.730Z,21.90
2022-11-01T14:08:29.188Z,21.80
2022-11-01T14:10:58.321Z,21.80
2022-11-01T14:13:36.579Z,21.70
2022-11-01T14:16:23.965Z,21.60
2022-11-01T14:19:20.484Z,21.50
2022-11-01T14:21:54.516Z,21.40
2022-11-01T14:24:34.967Z,21.30
2022-11-01T14:27:35.419Z,21.20
2022-11-01T14:30:13.816Z,21.00
2022-11-01T14:32:45.571Z,20.90
2022-11-01T14:35:25.508Z,20.80
2022-11-01T14:37:56.704Z,20.70
2022-11-01T14:40:31.575Z,20.60
2022-11-01T14:43:34.485Z,20.50
2022-11-01T14:46:06.630Z,20.40
2022-11-01T14:48:41.818Z,20.30
2022-11-01T14:51:18.814Z,20.10
2022-11-01T14:53:49.057Z,20.00
2022-11-01T14:56:20.346Z,19.90
2022-11-01T14:58:50.277Z,19.80
2022-11-01T15:01:23.623Z,19.70
2022-11-01T15:03:57.025Z,19.60
2022-11-01T15:06:30.552Z,19.50
2022-11-01T15:09:03.093Z,19.40
2022-11-01T15:11:34.960Z,19.20
2022-11-01T15:14:31.341Z,19.10
2022-11-01T15:17:00.699Z,18.90
2022-11-01T15:19:35.520Z,18.90
2022-11-01T15:22:06.749Z,18.80
2022-11-01T15:24:36.862Z,18.60
2022-11-01T15:27:07.601Z,18.50
2022-11-01T15:29:38.137Z,18.40
2022-11-01T15:32:08.792Z,18.30
2022-11-01T15:34:38.123Z,18.20
2022-11-01T15:37:23.781Z,18.10
2022-11-01T15:39:52.874Z,18.10
2022-11-01T15:42:24.930Z,18.00
2022-11-01T15:44:53.850Z,17.90
2022-11-01T15:47:26.118Z,17.80
2022-11-01T15:50:00.521Z,17.70
2022-11-01T15:52:33.330Z,17.70
2022-11-01T15:55:08.766Z,17.60
2022-11-01T15:57:43.378Z,17.50
2022-11-01T16:00:18.957Z,17.50
2022-11-01T16:02:51.530Z,17.50
2022-11-01T16:05:25.060Z,17.40
2022-11-01T16:07:56.359Z,17.40
2022-11-01T16:10:31.546Z,17.30
2022-11-01T16:13:02.930Z,17.30
2022-11-01T16:15:33.581Z,17.20
2022-11-01T16:18:16.934Z,17.20
2022-11-01T16:20:47.535Z,17.10
2022-11-01T16:23:28.642Z,17.00
2022-11-01T16:26:05.992Z,17.00
2022-11-01T16:28:41.154Z,16.90
2022-11-01T16:31:36.171Z,16.80
2022-11-01T16:34:24.705Z,16.70
2022-11-01T16:36:53.978Z,16.60
2022-11-01T16:39:32.323Z,16.60
2022-11-01T16:42:01.642Z,16.50
2022-11-01T16:44:30.413Z,16.50
2022-11-01T16:46:59.397Z,16.40
2022-11-01T16:49:30.293Z,16.40
2022-11-01T16:52:18.474Z,16.30
2022-11-01T16:54:51.269Z,16.20
2022-11-01T16:57:26.100Z,16.20
2022-11-01T16:59:55.969Z,16.20
2022-11-01T17:02:27.068Z,16.10
2022-11-01T17:04:59.219Z,16.10
2022-11-01T17:07:46.728Z,16.00
2022-11-01T17:10:21.816Z,15.90
2022-11-01T17:13:09.368Z,15.90
2022-11-01T17:15:42.693Z,15.80
2022-11-01T17:18:17.719Z,15.70
2022-11-01T17:20:49.141Z,15.60
2022-11-01T17:23:21.011Z,15.50
2022-11-01T17:25:53.410Z,15.50
2022-11-01T17:28:24.679Z,15.40
2022-11-01T17:30:53.978Z,15.30
2022-11-01T17:33:23.036Z,15.20
2022-11-01T17:35:52.203Z,15.10
2022-11-01T17:38:30.334Z,15.00
2022-11-01T17:41:01.346Z,14.90
2022-11-01T17:43:30.299Z,14.80
2022-11-01T17:46:00.361Z,14.70
2022-11-01T17:48:29.094Z,14.70
2022-11-01T17:51:01.859Z,14.60
2022-11-01T17:53:31.209Z,14.60
2022-11-01T17:56:02.082Z,14.50
2022-11-01T17:58:31.039Z,14.40
2022-11-01T18:00:59.789Z,14.40
2022-11-01T18:03:28.620Z,14.30
2022-11-01T18:05:59.162Z,14.20
2022-11-01T18:08:30.568Z,14.20
2022-11-01T18:11:09.302Z,14.10
2022-11-01T18:13:47.390Z,14.00
2022-11-01T18:16:28.150Z,14.00
2022-11-01T18:19:30.288Z,13.90
2022-11-01T18:22:07.464Z,13.80
2022-11-01T18:24:44.460Z,13.70
2022-11-01T18:27:17.915Z,13.60
2022-11-01T18:29:49.755Z,13.50
2022-11-01T18:32:42.273Z,13.50
2022-11-01T18:35:24.067Z,13.40
2022-11-01T18:38:12.526Z,13.30
2022-11-01T18:40:49.019Z,13.30
2022-11-01T18:43:20.182Z,13.20
2022-11-01T18:46:18.824Z,13.20
2022-11-01T18:49:00.348Z,13.10
2022-11-01T18:51:31.620Z,13.00
2022-11-01T18:54:13.208Z,13.00
2022-11-01T18:56:45.066Z,12.90
2022-11-01T18:59:21.338Z,12.90
2022-11-01T19:01:55.723Z,12.80
2022-11-01T19:04:26.421Z,12.70
2022-11-01T19:07:04.850Z,12.70
2022-11-01T19:09:44.125Z,12.60
2022-11-01T19:12:16.917Z,12.60
2022-11-01T19:14:52.554Z,12.60
2022-11-01T19:17:26.702Z,12.50
2022-11-01T19:19:57.948Z,12.50
2022-11-01T19:22:35.321Z,12.40
2022-11-01T19:25:25.527Z,12.40
2022-11-01T19:27:58.646Z,12.30
2022-11-01T19:30:36.543Z,12.20
2022-11-01T19:33:19.311Z,12.10
2022-11-01T19:35:52.762Z,12.00
2022-11-01T19:38:22.910Z,12.00
2022-11-01T19:40:53.763Z,11.90
2022-11-01T19:43:25.694Z,11.80
2022-11-01T19:45:59.884Z,11.80
2022-11-01T19:48:31.462Z,11.80
2022-11-01T19:51:00.922Z,11.70
2022-11-01T19:53:34.646Z,11.70
2022-11-01T19:56:05.088Z,11.70
2022-11-01T19:58:42.229Z,11.70
2022-11-01T20:01:37.683Z,11.70
2022-11-01T20:04:16.068Z,11.60
2022-11-01T20:06:50.087Z,11.60
2022-11-01T20:09:23.958Z,11.60
2022-11-01T20:11:53.797Z,11.60
2022-11-01T20:14:23.586Z,11.60
2022-11-01T20:16:53.671Z,11.60
2022-11-01T20:19:22.352Z,11.50
2022-11-01T20:21:51.305Z,11.50
2022-11-01T20:24:20.477Z,11.50
2022-11-01T20:26:49.248Z,11.40
2022-11-01T20:29:23.014Z,11.40
2022-11-01T20:31:53.353Z,11.40
2022-11-01T20:34:22.302Z,11.30
2022-11-01T20:37:14.947Z,11.30
2022-11-01T20:39:39.665Z,11.30
2022-11-01T20:42:08.537Z,11.20
2022-11-01T20:44:37.647Z,11.20
2022-11-01T20:47:08.034Z,11.10
2022-11-01T20:49:37.310Z,11.10
2022-11-01T20:52:33.837Z,11.00
2022-11-01T20:54:55.420Z,11.00
2022-11-01T20:57:28.448Z,11.00
2022-11-01T20:59:57.622Z,10.90
2022-11-01T21:02:28.300Z,10.80
2022-11-01T21:05:01.876Z,10.70
2022-11-01T21:07:32.392Z,10.60
2022-11-01T21:10:01.238Z,10.60
2022-11-01T21:12:43.369Z,10.50
2022-11-01T21:15:33.698Z,10.50
2022-11-01T21:18:46.064Z,10.50
2022-11-01T21:21:35.800Z,10.50
2022-11-01T21:24:27.583Z,10.50
2022-11-01T21:27:23.891Z,10.40
2022-11-01T21:29:53.703Z,10.40
2022-11-01T21:32:27.322Z,10.40
2022-11-01T21:34:58.116Z,10.40
2022-11-01T21:37:31.141Z,10.40
2022-11-01T21:40:06.619Z,10.30
2022-11-01T21:42:37.102Z,10.30
2022-11-01T21:45:31.126Z,10.20
2022-11-01T21:48:03.868Z,10.00
2022-11-01T21:50:34.379Z,10.00
2022-11-01T21:53:03.364Z,9.90
2022-11-01T21:55:32.339Z,9.90
2022-11-01T21:58:01.105Z,9.90
2022-11-01T22:00:30.011Z,9.90
2022-11-01T22:02:58.814Z,9.80
2022-11-01T22:05:27.690Z,9.80
2022-11-01T22:07:58.052Z,9.80
2022-11-01T22:10:45.084Z,9.70
2022-11-01T22:13:14.193Z,9.70
2022-11-01T22:15:43.171Z,9.70
2022-11-01T22:18:11.959Z,9.70
2022-11-01T22:20:41.474Z,9.70
2022-11-01T22:23:30.362Z,9.70
2022-11-01T22:25:59.135Z,9.70
2022-11-01T22:28:28.352Z,9.70
2022-11-01T22:30:57.326Z,9.70
2022-11-01T22:33:26.987Z,9.70
2022-11-01T22:35:55.905Z,9.70
2022-11-01T22:38:25.196Z,9.70
2022-11-01T22:40:59.194Z,9.70
2022-11-01T22:43:48.281Z,9.70
2022-11-01T22:46:23.337Z,9.80
2022-11-01T22:48:58.177Z,9.80
2022-11-01T22:51:30.998Z,9.70
2022-11-01T22:54:01.543Z,9.80
2022-11-01T22:56:31.936Z,9.70
2022-11-01T22:59:00.853Z,9.70
2022-11-01T23:01:34.401Z,9.60
2022-11-01T23:04:03.500Z,9.50
2022-11-01T23:06:51.034Z,9.30
2022-11-01T23:09:22.252Z,9.10
2022-11-01T23:12:13.342Z,8.90
2022-11-01T23:14:45.760Z,8.80
2022-11-01T23:17:22.562Z,8.80
2022-11-01T23:19:57.378Z,8.80
2022-11-01T23:22:31.281Z,8.70
2022-11-01T23:25:00.350Z,8.70
2022-11-01T23:27:31.303Z,8.70
2022-11-01T23:30:02.877Z,8.70
2022-11-01T23:32:32.059Z,8.70
2022-11-01T23:35:11.372Z,8.70
2022-11-01T23:37:40.166Z,8.70
2022-11-01T23:40:15.678Z,8.70
2022-11-01T23:43:04.421Z,8.60
2022-11-01T23:45:35.544Z,8.60
2022-11-01T23:48:04.795Z,8.50
2022-11-01T23:50:35.777Z,8.40
2022-11-01T23:53:07.838Z,8.40
2022-11-01T23:55:39.761Z,8.30
2022-11-01T23:58:13.864Z,8.30
